• Join FlightAware (Why Join?)
  • Login
  • US Flag 
02:15PM EDT


 

Airport Tracker/Info


-or-


 

Live Flight TrackerFlight Track Log ✈ N70AG ✈ 14-Aug-2013 ✈ KSCK - KMDW

Flight Track Log - Related Links

Times and Time Zones

All times are in EDT time to prevent confusion due to time zone crossing. See the N70AG flight status page for this flight to view local times or setup timezone preferences in your user account.

Time Position Orientation Groundspeed Altitude Reporting Facility
EDT Latitude Longitude Course Direction KTS MPH feet Rate Location/Type
04:07PM 37.9000 -121.2500 90° East 159 183 900  Level Northern Cal TRACON
04:08PM 37.9500 -121.2333 15° North 220 253 3,500 2,760 Climbing Northern Cal TRACON
04:11PM 38.0472 -121.0558 55° Northeast 285 328 10,100 2,400 Climbing Oakland Center
04:12PM 38.0842 -120.9481 66° East 330 380 11,500 1,980 Climbing Oakland Center
04:13PM 38.1833 -120.3064 90° East  Level FlightAware Approximate
04:13PM 38.1161 -120.8256 72° East 362 417 14,200  Level Oakland Center
04:14PM 38.1617 -120.6739 69° East 381 438 17,200 2,580 Climbing Oakland Center
04:15PM 38.1989 -120.5394 71° East 397 457 19,500 2,160 Climbing Oakland Center
04:16PM 38.2378 -120.4008 70° East 412 474 21,700 2,100 Climbing Oakland Center
04:17PM 38.2767 -120.2561 71° East 430 495 23,900 2,040 Climbing Oakland Center
04:18PM 38.3108 -120.1042 74° East 448 516 26,000 2,040 Climbing Oakland Center
04:19PM 38.3392 -119.9492 77° East 451 519 28,200 2,160 Climbing Oakland Center
04:20PM 38.3708 -119.7947 75° East 452 520 30,500 1,320 Climbing Oakland Center
04:21PM 38.4028 -119.6367 75° East 459 528 31,000 240 Climbing Oakland Center
04:22PM 38.4378 -119.4589 76° East 482 555 31,000  Level Oakland Center
04:23PM 38.4706 -119.2919 76° East 487 560 31,000  Level Oakland Center
04:24PM 38.5097 -119.0919 76° East 486 559 31,000  Level Oakland Center
04:25PM 38.5411 -118.9164 77° East 502 578 31,000  Level Oakland Center
04:26PM 38.5739 -118.7419 76° East 507 583 31,000 480 Level Oakland Center
04:27PM 38.5972 -118.5697 80° East 497 572 32,000 1,560 Climbing Oakland Center
04:28PM 38.6069 -118.3950 86° East 498 573 34,300 1,800 Climbing Oakland Center
04:29PM 38.6186 -118.2214 85° East 494 568 35,800 1,440 Climbing Oakland Center
04:30PM 38.6281 -118.0408 86° East 496 571 37,300 1,200 Climbing Oakland Center
04:31PM 38.6461 -117.8608 83° East 506 582 38,300 960 Climbing Oakland Center
04:32PM 38.6739 -117.6803 79° East 513 590 39,300 960 Climbing Oakland Center
04:33PM 38.7000 -117.4939 80° East 522 601 40,300 780 Climbing Oakland Center
04:34PM 38.7267 -117.3069 80° East 528 608 41,000 360 Climbing Oakland Center
04:35PM 38.7522 -117.1200 80° East 530 610 41,000  Level Salt Lake Center
04:36PM 38.7792 -116.9314 80° East 533 613 41,000  Level Salt Lake Center
04:37PM 38.8053 -116.7392 80° East 543 625 41,000  Level Salt Lake Center
04:38PM 38.8383 -116.5022 80° East 555 639 41,000  Level Oakland Center
04:39PM 38.8581 -116.3447 81° East 559 643 41,000  Level Salt Lake Center
04:40PM 38.8883 -116.1089 81° East 556 640 41,000  Level Salt Lake Center
04:41PM 38.9147 -115.9131 80° East 557 641 41,000  Level Salt Lake Center
04:42PM 38.9397 -115.7164 81° East 557 641 41,000  Level Salt Lake Center
04:43PM 38.9633 -115.5200 81° East 555 639 41,000  Level Salt Lake Center
04:45PM 38.9864 -115.3343 81° East  Level FlightAware Approximate
04:46PM 39.0167 -115.0997 81° East 561 646 41,000  Level Salt Lake Center
04:47PM 39.0403 -114.9033 81° East 558 642 41,000  Level Salt Lake Center
04:48PM 39.0639 -114.7056 81° East 559 643 41,000  Level Salt Lake Center
04:49PM 39.0872 -114.5072 81° East 560 644 41,000  Level Salt Lake Center
04:50PM 39.1100 -114.3086 82° East 560 644 41,000  Level Salt Lake Center
04:51PM 39.1328 -114.1083 82° East 564 649 41,000  Level Salt Lake Center
04:52PM 39.1564 -113.9075 81° East 567 652 41,000  Level Salt Lake Center
04:53PM 39.1819 -113.6678 82° East 563 648 41,000  Level Salt Lake Center
04:54PM 39.2039 -113.4656 82° East 568 654 41,000  Level Salt Lake Center
04:55PM 39.2247 -113.2647 82° East 566 651 41,000  Level Salt Lake Center
04:56PM 39.2461 -113.0642 82° East 565 650 41,000  Level Salt Lake Center
04:58PM 39.2867 -112.6603 82° East 568 654 41,000  Level Salt Lake Center
04:59PM 39.3136 -112.4494 81° East 565 650 41,000  Level Salt Lake Center
05:00PM 39.3503 -112.2533 76° East 565 650 41,000  Level Salt Lake Center
05:01PM 39.3936 -112.0175 77° East 566 651 41,000  Level Salt Lake Center
05:02PM 39.4292 -111.8206 77° East 566 651 41,000  Level Salt Lake Center
05:03PM 39.4650 -111.6256 77° East 561 646 41,000  Level Salt Lake Center
05:04PM 39.5008 -111.4281 77° East 565 650 41,000  Level Salt Lake Center
05:05PM 39.5389 -111.2097 77° East 562 647 41,000  Level Salt Lake Center
05:06PM 39.5722 -111.0200 77° East 564 649 41,000  Level Salt Lake Center
05:07PM 39.6108 -110.7989 77° East 562 647 41,000  Level Salt Lake Center
05:08PM 39.6433 -110.6094 77° East 562 647 41,000  Level Salt Lake Center
05:09PM 39.6803 -110.3881 78° East 562 647 41,000  Level Salt Lake Center
05:10PM 39.7122 -110.1989 78° East 559 643 41,000  Level Salt Lake Center
05:11PM 39.7433 -110.0067 78° East 566 651 41,000  Level Salt Lake Center
05:12PM 39.7808 -109.7833 78° East 567 652 41,000  Level Salt Lake Center
05:14PM 39.8267 -109.4956 78° East 561 646 41,000  Level Denver Center
05:15PM 39.8569 -109.3050 78° East 562 647 41,000  Level Denver Center
05:15PM 39.8767 -109.1800 78° East 558 642 41,000  Level Salt Lake Center
05:16PM 39.9122 -108.9586 78° East 556 640 41,000  Level Salt Lake Center
05:18PM 39.9419 -108.7672 78° East 556 640 41,000  Level Salt Lake Center
05:19PM 39.9714 -108.5750 79° East 558 642 41,000  Level Salt Lake Center
05:20PM 40.0050 -108.3503 79° East 560 644 41,000  Level Salt Lake Center
05:21PM 40.0328 -108.1594 79° East 559 643 41,000  Level Salt Lake Center
05:22PM 40.0658 -107.9397 79° East 555 639 41,000  Level Salt Lake Center
05:23PM 40.1278 -107.6614 74° East 554 638 41,000  Level Denver Center
05:24PM 40.1708 -107.4775 73° East 553 636 41,000  Level Denver Center
05:25PM 40.2194 -107.2606 74° East 555 639 41,000  Level Denver Center
05:26PM 40.2614 -107.0756 73° East 555 639 41,000  Level Denver Center
05:27PM 40.3100 -106.8589 74° East 555 639 41,000  Level Denver Center
05:28PM 40.3511 -106.6811 73° East 555 639 41,000  Level Denver Center
05:29PM 40.3994 -106.4553 74° East 557 641 41,000  Level Denver Center
05:30PM 40.4411 -106.2681 74° East 557 641 41,000  Level Denver Center
05:31PM 40.4819 -106.0753 74° East 555 639 41,000  Level Denver Center
05:32PM 40.5239 -105.8800 74° East 556 640 41,000  Level Denver Center
05:33PM 40.5639 -105.6875 75° East 548 631 41,000  Level Denver Center
05:34PM 40.6119 -105.4553 75° East 549 632 41,000  Level Denver Center
05:36PM 40.6522 -105.2633 74° East 545 627 41,000  Level Denver Center
05:37PM 40.6911 -105.0717 75° East 541 623 41,000  Level Denver Center
05:38PM 40.7311 -104.8786 75° East 543 625 41,000  Level Denver Center
05:39PM 40.7689 -104.6844 76° East 543 625 41,000  Level Denver Center
05:40PM 40.8081 -104.4903 75° East 546 628 41,000  Level Denver Center
05:41PM 40.8531 -104.2594 75° East 542 624 41,000  Level Denver Center
05:42PM 40.8917 -104.0667 75° East 543 625 41,000  Level Denver Center
05:43PM 40.9278 -103.8747 76° East 541 623 41,000  Level Denver Center
05:44PM 40.9656 -103.6819 75° East 541 623 41,000  Level Denver Center
05:45PM 41.0056 -103.4683 76° East 538 619 41,000  Level Denver Center
05:47PM 41.0803 -103.0689 76° East 541 623 41,000  Level Denver Center
05:48PM 41.1061 -102.8728 80° East 543 625 41,000  Level Denver Center
05:49PM 41.1194 -102.6847 85° East 537 618 41,000  Level Denver Center
05:50PM 41.1367 -102.4633 84° East 540 621 41,000  Level Denver Center
05:51PM 41.1511 -102.2742 84° East 539 620 41,000  Level Denver Center
05:52PM 41.1664 -102.0536 85° East 540 621 41,000  Level Denver Center
05:53PM 41.1803 -101.8619 84° East 543 625 41,000  Level Denver Center
05:54PM 41.1967 -101.6397 84° East 541 623 41,000  Level Denver Center
05:55PM 41.2106 -101.4489 84° East 541 623 41,000  Level Denver Center
05:56PM 41.2233 -101.2583 85° East 541 623 41,000  Level Denver Center
05:57PM 41.2375 -101.0369 85° East 536 617 41,000  Level Denver Center
05:58PM 41.2500 -100.8461 85° East 536 617 41,000  Level Denver Center
05:59PM 41.2639 -100.6219 85° East 539 620 41,000  Level Denver Center
06:00PM 41.2753 -100.4311 85° East 539 620 41,000  Level Denver Center
06:01PM 41.2875 -100.2075 86° East 540 621 41,000  Level Denver Center
06:02PM 41.2981 -100.0158 86° East 542 624 41,000  Level Denver Center
06:03PM 41.3081 -99.8244 86° East 542 624 41,000  Level Denver Center
06:04PM 41.3197 -99.6031 86° East 539 620 41,000  Level Denver Center
06:06PM 41.3303 -99.3953 86° East 536 617 41,000  Level Denver Center
06:07PM 41.3394 -99.1956 86° East 537 618 41,000  Level Denver Center
06:07PM 41.3453 -99.0722 86° East 538 619 41,000  Level Minneapolis Center
06:08PM 41.3533 -98.8744 87° East 537 618 41,000  Level Minneapolis Center
06:09PM 41.3564 -98.6767 89° East 537 618 41,000  Level Minneapolis Center
06:10PM 41.3597 -98.4775 89° East 538 619 41,000  Level Minneapolis Center
06:11PM 41.3633 -98.2669 89° East 542 624 41,000  Level Minneapolis Center
06:12PM 41.3656 -98.0764 89° East 540 621 41,000  Level Minneapolis Center
06:13PM 41.3681 -97.8389 89° East 536 617 41,000  Level Minneapolis Center
06:14PM 41.3692 -97.6403 90° East 537 618 41,000  Level Minneapolis Center
06:15PM 41.3708 -97.4414 89° East 538 619 41,000  Level Minneapolis Center
06:16PM 41.3725 -97.2414 89° East 540 621 41,000  Level Minneapolis Center
06:17PM 41.3731 -97.0439 90° East 536 617 41,000  Level Minneapolis Center
06:19PM 41.3742 -96.8492 89° East 530 610 41,000  Level Minneapolis Center
06:20PM 41.3742 -96.6236 90° East 512 589 41,000  Level Minneapolis Center
06:21PM 41.3744 -96.4325 90° East 515 593 41,000  Level Minneapolis Center
06:22PM 41.3714 -96.2269 91° East 520 598 41,000  Level Minneapolis Center
06:23PM 41.3669 -96.0372 92° East 516 594 41,000  Level Minneapolis Center
06:24PM 41.3714 -95.8461 88° East 517 595 41,000  Level Minneapolis Center
06:25PM 41.3697 -95.6586 91° East 509 586 41,000  Level Minneapolis Center
06:26PM 41.3669 -95.4694 91° East 498 573 41,000  Level Minneapolis Center
06:27PM 41.3653 -95.2844 91° East 499 574 41,000  Level Minneapolis Center
06:28PM 41.3633 -95.0997 91° East 500 575 41,000  Level Minneapolis Center
06:29PM 41.3592 -94.8789 91° East 498 573 41,000  Level Minneapolis Center
06:30PM 41.3558 -94.6972 91° East 495 570 41,000  Level Minneapolis Center
06:31PM 41.3536 -94.5150 91° East 493 567 41,000  Level Minneapolis Center
06:32PM 41.3492 -94.3331 92° East 492 566 41,000  Level Minneapolis Center
06:33PM 41.3456 -94.1469 91° East 493 567 41,000  Level Minneapolis Center
06:34PM 41.3417 -93.9669 92° East 490 564 41,000  Level Minneapolis Center
06:35PM 41.3375 -93.7864 92° East 492 566 41,000  Level Minneapolis Center
06:36PM 41.3319 -93.5700 92° East 490 564 41,000  Level Minneapolis Center
06:37PM 41.3283 -93.3889 91° East 492 566 41,000  Level Minneapolis Center
06:38PM 41.3231 -93.2089 92° East 491 565 41,000  Level Minneapolis Center
06:39PM 41.3189 -93.0314 92° East 486 559 41,000 -180 Level Minneapolis Center
06:40PM 41.3122 -92.8528 93° East 486 559 40,700 -720 Descending Minneapolis Center
06:41PM 41.3061 -92.6786 93° East 481 554 39,600 -1,320 Descending Minneapolis Center
06:42PM 41.3000 -92.4736 92° East 471 542 38,000 -1,620 Descending Minneapolis Center
06:43PM 41.2936 -92.2997 93° East 471 542 36,300 -1,680 Descending Minneapolis Center
06:44PM 41.2867 -92.1183 93° East 480 552 34,600 -1,680 Descending Minneapolis Center
06:45PM 41.2797 -91.9267 93° East 495 570 32,900 -1,620 Descending Minneapolis Center
06:46PM 41.2717 -91.7164 93° East 508 585 31,300 -2,160 Descending Minneapolis Center
06:48PM 41.2581 -91.4606 94° East 532 612 28,000 -2,400 Descending Chicago Center
06:49PM 41.2489 -91.2631 93° East 517 595 25,800 -1,920 Descending Chicago Center
06:50PM 41.2411 -91.0789 93° East 501 577 24,000 -1,260 Descending Chicago Center
06:51PM 41.2325 -90.8989 94° East 489 563 23,200 -1,440 Descending Chicago Center
06:52PM 41.2233 -90.7247 94° East 478 550 21,100 -2,040 Descending Chicago Center
06:53PM 41.2153 -90.5553 94° East 461 531 19,100 -1,020 Descending Chicago Center
06:54PM 41.2039 -90.3589 94° East 442 509 19,000 -60 Descending Chicago Center
06:55PM 41.1619 -90.2231 112° Southeast 401 461 19,000 -480 Level Chicago Center
06:56PM 41.1194 -90.0856 112° Southeast 401 461 18,100 -960 Descending Chicago Center
06:57PM 41.0811 -89.9511 111° Southeast 393 452 17,100 -540 Descending Chicago Center
06:58PM 41.0425 -89.8192 111° Southeast 386 444 17,000 -60 Descending Chicago Center
06:59PM 41.0050 -89.6856 110° East 384 442 17,000  Level Chicago Center
07:00PM 41.0003 -89.5497 93° East 377 434 17,000 -600 Level Chicago Center
07:01PM 41.0308 -89.4175 73° East 371 427 15,800 -1,680 Descending Chicago Center
07:02PM 41.0647 -89.2650 74° East 358 412 13,600 -1,920 Descending Chicago Center
07:03PM 41.0906 -89.1469 74° East 348 400 11,900 -1,320 Descending Chicago Center
07:04PM 41.1167 -89.0275 74° East 340 391 11,000 -780 Descending Chicago Center
07:05PM 41.1603 -88.9211 61° Northeast 328 377 10,400 -840 Descending Chicago Center
07:06PM 41.2267 -88.8169 50° Northeast 311 358 9,300 -960 Descending Chicago Center
07:07PM 41.2783 -88.7353 50° Northeast 294 338 8,500 -780 Descending Chicago Center
07:08PM 41.3292 -88.6578 49° Northeast 283 326 7,700 -780 Descending Chicago Center
07:09PM 41.3769 -88.5831 50° Northeast 270 311 6,900 -720 Descending Chicago Center
07:10PM 41.4167 -88.5167 51° Northeast 239 275 6,300 -480 Descending Chicago Center
07:12PM 41.4397 -88.4222 72° East 224 258 6,000 -540 Descending Chicago Center
07:13PM 41.4608 -88.3433 70° East 226 260 5,300 -1,020 Descending Chicago Center
07:14PM 41.4814 -88.2672 70° East 221 254 4,000 -660 Descending Chicago Center
07:15PM 41.5028 -88.1914 69° East 219 252 4,000  Level Chicago Center
07:16PM 41.5242 -88.1139 70° East 219 252 4,000  Level Chicago Center
07:17PM 41.5569 -88.0381 60° Northeast 232 267 4,000  Level Chicago Center
07:18PM 41.6072 -87.9761 43° Northeast 243 280 4,000 -120 Level Chicago Center
07:19PM 41.6647 -87.9047 43° Northeast 240 276 3,800 -720 Descending Chicago Center
07:20PM 41.7075 -87.8503 44° Northeast 228 262 2,600 -1,020 Descending Chicago Center
07:21PM 41.7408 -87.8083 43° Northeast 191 220 1,700 -840 Descending Chicago Center
07:22PM 41.7697 -87.7722 43° Northeast 164 189 900 -780 Descending Chicago Center
07:24PM 41.7833 -87.7500 42° Northeast  Level FlightAware Approximate